Time;durP1;ratioP1;P1;durP2;ratioP2;P2;SDS_P1;SDS_P2;PMS_P1;PMS_P2;Temp;Humidity;BMP_temperature;BMP_pressure;BME280_temperature;BME280_humidity;BME280_pressure;Samples;Min_cycle;Max_cycle;Signal;HPM_P1;HPM_P2
2023/12/05 00:01:01;;;;;;;13.05;8.40;;;3.40;99.90;;;;;;494084;241;27524;-73
2023/12/05 00:03:02;;;;;;;13.82;8.73;;;3.50;99.90;;;;;;494103;241;27898;-72
2023/12/05 00:05:04;;;;;;;12.75;8.02;;;3.50;99.90;;;;;;494048;241;28073;-73
2023/12/05 00:07:11;;;;;;;12.55;8.65;;;3.40;99.90;;;;;;493976;241;27926;-72
2023/12/05 00:09:12;;;;;;;12.70;9.15;;;3.40;99.90;;;;;;493983;241;27474;-72
2023/12/05 00:11:14;;;;;;;11.85;7.75;;;3.40;99.90;;;;;;494062;241;27579;-73
2023/12/05 00:13:15;;;;;;;10.35;7.68;;;3.40;99.90;;;;;;493979;237;27485;-72
2023/12/05 00:15:16;;;;;;;14.30;8.93;;;3.40;99.90;;;;;;493970;241;27536;-73
2023/12/05 00:17:17;;;;;;;14.23;9.50;;;3.40;99.90;;;;;;493992;241;27559;-73
2023/12/05 00:19:18;;;;;;;14.38;9.20;;;3.40;99.90;;;;;;493982;241;27548;-72
2023/12/05 00:21:20;;;;;;;12.40;8.38;;;3.50;99.90;;;;;;494056;241;27559;-72
2023/12/05 00:23:21;;;;;;;11.52;7.78;;;3.50;99.90;;;;;;493983;241;27587;-72
2023/12/05 00:25:22;;;;;;;12.90;9.13;;;3.50;99.90;;;;;;493980;241;27591;-72
2023/12/05 00:27:24;;;;;;;11.63;8.57;;;3.50;99.90;;;;;;494007;241;27527;-74
2023/12/05 00:29:25;;;;;;;13.48;8.40;;;3.50;99.90;;;;;;493992;241;27491;-72
2023/12/05 00:31:26;;;;;;;13.82;9.13;;;3.60;99.90;;;;;;493964;241;27508;-73
2023/12/05 00:33:27;;;;;;;15.10;8.57;;;3.60;99.90;;;;;;493987;241;27548;-72
2023/12/05 00:35:29;;;;;;;11.65;9.38;;;3.60;99.90;;;;;;493991;241;27984;-72
2023/12/05 00:37:30;;;;;;;16.15;9.55;;;3.60;99.90;;;;;;493994;241;29105;-73
2023/12/05 00:39:31;;;;;;;12.85;9.10;;;3.60;99.90;;;;;;494091;237;27466;-72
2023/12/05 00:41:32;;;;;;;13.75;9.70;;;3.60;99.90;;;;;;493977;241;27497;-72
2023/12/05 00:43:34;;;;;;;12.90;9.07;;;3.60;99.90;;;;;;493926;241;27510;-73
2023/12/05 00:45:35;;;;;;;13.75;9.10;;;3.60;99.90;;;;;;494068;241;27467;-72
2023/12/05 00:47:36;;;;;;;16.75;10.05;;;3.60;99.90;;;;;;494035;241;27525;-74
2023/12/05 00:49:37;;;;;;;14.55;9.30;;;3.60;99.90;;;;;;494056;241;27557;-73
2023/12/05 00:51:39;;;;;;;15.95;10.50;;;3.60;99.90;;;;;;494066;241;27520;-73
2023/12/05 00:53:40;;;;;;;14.07;8.75;;;3.70;99.90;;;;;;493999;241;27989;-74
2023/12/05 00:55:41;;;;;;;15.30;9.43;;;3.70;99.90;;;;;;493981;241;27914;-72
2023/12/05 00:57:42;;;;;;;13.65;9.30;;;3.70;99.90;;;;;;494032;241;29086;-72
2023/12/05 00:59:44;;;;;;;16.02;10.68;;;3.80;99.90;;;;;;494021;241;27489;-73
2023/12/05 01:01:45;;;;;;;14.82;9.45;;;3.70;99.90;;;;;;493970;241;27469;-73
2023/12/05 01:03:46;;;;;;;15.93;9.90;;;3.70;99.90;;;;;;493996;241;27520;-73
2023/12/05 01:05:47;;;;;;;15.27;10.23;;;3.70;99.90;;;;;;493958;241;27565;-72
2023/12/05 01:07:49;;;;;;;16.17;10.30;;;3.70;99.90;;;;;;494046;237;27627;-73
2023/12/05 01:09:50;;;;;;;13.27;9.45;;;3.80;99.90;;;;;;494058;241;27529;-74
2023/12/05 01:11:51;;;;;;;14.02;9.68;;;3.70;99.90;;;;;;494063;241;28052;-72
2023/12/05 01:13:52;;;;;;;14.13;10.05;;;3.80;99.90;;;;;;494060;241;28084;-73
2023/12/05 01:15:54;;;;;;;11.68;8.90;;;3.70;99.90;;;;;;494080;241;27936;-73
2023/12/05 01:17:55;;;;;;;14.23;9.70;;;3.70;99.90;;;;;;494049;241;27503;-73
2023/12/05 01:19:56;;;;;;;12.85;9.27;;;3.80;99.90;;;;;;494081;241;27505;-74
2023/12/05 01:21:57;;;;;;;14.93;10.15;;;3.80;99.90;;;;;;493995;241;27467;-73
2023/12/05 01:23:59;;;;;;;12.90;9.20;;;3.80;99.90;;;;;;494052;241;27642;-73
2023/12/05 01:26:00;;;;;;;11.75;9.13;;;3.80;99.90;;;;;;493987;241;27481;-72
2023/12/05 01:28:02;;;;;;;12.20;8.93;;;3.80;99.90;;;;;;493982;241;27599;-73
2023/12/05 01:30:04;;;;;;;12.05;9.82;;;3.80;99.90;;;;;;494017;241;28033;-74
2023/12/05 01:32:04;;;;;;;13.00;9.63;;;3.80;99.90;;;;;;493962;241;27910;-73
2023/12/05 01:34:05;;;;;;;13.13;9.50;;;3.80;99.90;;;;;;494053;241;29103;-73
2023/12/05 01:36:06;;;;;;;16.12;10.05;;;3.80;99.90;;;;;;493971;241;27537;-73
2023/12/05 01:38:08;;;;;;;11.27;8.00;;;3.90;99.90;;;;;;493999;241;27463;-73
2023/12/05 01:40:09;;;;;;;12.65;9.00;;;3.90;99.90;;;;;;493887;241;27528;-74
2023/12/05 01:42:10;;;;;;;13.13;9.75;;;3.90;99.90;;;;;;493973;241;27477;-73
2023/12/05 01:44:11;;;;;;;15.50;10.50;;;3.90;99.90;;;;;;493869;241;27501;-72
2023/12/05 01:46:12;;;;;;;14.55;9.18;;;3.90;99.90;;;;;;494056;241;27518;-74
2023/12/05 01:48:14;;;;;;;13.05;9.70;;;3.90;99.90;;;;;;494090;241;27528;-73
2023/12/05 01:50:15;;;;;;;10.77;8.60;;;3.90;99.90;;;;;;494074;241;27983;-73
2023/12/05 01:52:16;;;;;;;15.07;9.68;;;3.90;99.90;;;;;;493983;239;29028;-72
2023/12/05 01:54:17;;;;;;;16.87;10.63;;;3.90;99.90;;;;;;493995;241;27498;-73
2023/12/05 01:56:19;;;;;;;14.90;8.80;;;3.90;99.90;;;;;;493949;241;27618;-73
2023/12/05 01:58:20;;;;;;;16.50;9.90;;;3.90;99.90;;;;;;494019;241;27470;-72
2023/12/05 02:00:21;;;;;;;12.48;8.93;;;3.90;99.90;;;;;;494001;237;27509;-73
2023/12/05 02:02:23;;;;;;;13.98;9.25;;;3.90;99.90;;;;;;493984;241;27542;-73
2023/12/05 02:04:24;;;;;;;12.57;9.55;;;3.90;99.90;;;;;;494021;241;27568;-73
2023/12/05 02:06:26;;;;;;;11.70;8.25;;;4.00;99.90;;;;;;494013;241;27617;-73
2023/12/05 02:08:27;;;;;;;15.27;9.63;;;3.90;99.90;;;;;;493978;241;27921;-73
2023/12/05 02:10:27;;;;;;;15.52;9.73;;;4.00;99.90;;;;;;493965;237;28015;-72
2023/12/05 02:12:29;;;;;;;16.40;9.32;;;3.90;99.90;;;;;;494046;241;28173;-74
2023/12/05 02:14:30;;;;;;;13.10;8.82;;;4.00;99.90;;;;;;494026;241;27497;-73
2023/12/05 02:16:31;;;;;;;12.65;8.10;;;4.00;99.90;;;;;;494062;241;27587;-73
2023/12/05 02:18:32;;;;;;;11.60;8.82;;;4.00;99.90;;;;;;493957;241;27478;-72
2023/12/05 02:20:34;;;;;;;13.35;8.45;;;4.00;99.90;;;;;;494008;241;27501;-73
2023/12/05 02:22:35;;;;;;;10.90;7.22;;;4.00;99.90;;;;;;494086;241;27599;-74
2023/12/05 02:24:36;;;;;;;14.20;8.90;;;4.00;99.90;;;;;;494049;241;27484;-73
2023/12/05 02:26:38;;;;;;;13.43;8.98;;;4.00;99.90;;;;;;494008;241;27604;-73
2023/12/05 02:28:39;;;;;;;15.05;8.95;;;4.00;99.90;;;;;;493953;241;28753;-73
2023/12/05 02:30:40;;;;;;;14.27;9.30;;;4.00;99.90;;;;;;494062;241;28001;-72
2023/12/05 02:32:41;;;;;;;12.95;7.70;;;4.00;99.90;;;;;;494054;241;29081;-73
2023/12/05 02:34:43;;;;;;;13.38;8.68;;;4.00;99.90;;;;;;494045;241;27585;-72
2023/12/05 02:36:44;;;;;;;11.00;7.62;;;4.00;99.90;;;;;;494038;241;27509;-72
2023/12/05 02:38:45;;;;;;;9.32;7.05;;;4.00;99.90;;;;;;494057;241;27588;-73
2023/12/05 02:40:46;;;;;;;10.02;6.75;;;4.10;99.90;;;;;;494052;239;27520;-73
2023/12/05 02:42:48;;;;;;;10.45;7.40;;;4.10;99.90;;;;;;493977;240;27504;-73
2023/12/05 02:44:51;;;;;;;12.93;7.05;;;4.10;99.90;;;;;;493942;241;27546;-72
2023/12/05 02:46:50;;;;;;;8.13;6.60;;;4.10;99.90;;;;;;493816;241;27536;-73
2023/12/05 02:48:51;;;;;;;8.73;6.37;;;4.10;99.90;;;;;;493984;241;28034;-74
2023/12/05 02:50:53;;;;;;;9.23;6.53;;;4.20;99.90;;;;;;493994;241;28125;-74
2023/12/05 02:52:54;;;;;;;11.45;6.57;;;4.10;99.90;;;;;;493957;241;28027;-72
2023/12/05 02:54:55;;;;;;;11.95;7.00;;;4.10;99.90;;;;;;493964;241;27564;-73
2023/12/05 02:56:56;;;;;;;11.60;6.80;;;4.20;99.90;;;;;;493971;241;27517;-73
2023/12/05 02:58:58;;;;;;;9.25;5.95;;;4.20;99.90;;;;;;493977;241;27533;-75
2023/12/05 03:00:59;;;;;;;7.28;5.40;;;4.20;99.90;;;;;;493952;241;27516;-72
2023/12/05 03:03:00;;;;;;;9.10;6.00;;;4.20;99.90;;;;;;493966;241;27632;-73
2023/12/05 03:05:01;;;;;;;7.95;6.30;;;4.20;99.90;;;;;;494046;241;27477;-72
2023/12/05 03:07:03;;;;;;;7.93;5.70;;;4.20;99.90;;;;;;494084;241;27465;-74
2023/12/05 03:09:04;;;;;;;10.73;5.78;;;4.20;99.90;;;;;;494097;241;27513;-72
2023/12/05 03:11:05;;;;;;;7.15;5.47;;;4.20;99.90;;;;;;494067;241;27536;-72
2023/12/05 03:13:06;;;;;;;9.18;5.87;;;4.20;99.90;;;;;;493981;241;27953;-73
2023/12/05 03:15:08;;;;;;;9.57;5.78;;;4.20;99.90;;;;;;493977;241;28078;-74
2023/12/05 03:17:09;;;;;;;10.80;6.37;;;4.20;99.90;;;;;;494011;241;28000;-72
2023/12/05 03:19:10;;;;;;;13.02;6.45;;;4.20;99.90;;;;;;493994;241;27637;-73
2023/12/05 03:21:11;;;;;;;11.07;5.60;;;4.20;99.90;;;;;;494001;241;27478;-72
2023/12/05 03:23:13;;;;;;;12.25;5.45;;;4.20;99.90;;;;;;493984;241;27502;-73
2023/12/05 03:25:14;;;;;;;11.55;6.05;;;4.20;99.90;;;;;;494094;241;27536;-74
2023/12/05 03:27:15;;;;;;;7.78;5.62;;;4.20;99.90;;;;;;493974;241;28754;-73
2023/12/05 03:29:17;;;;;;;7.15;5.43;;;4.20;99.90;;;;;;493953;241;27510;-72
2023/12/05 03:31:18;;;;;;;6.53;4.80;;;4.20;99.90;;;;;;493993;241;27469;-73
2023/12/05 03:33:19;;;;;;;7.60;5.20;;;4.20;99.90;;;;;;494001;241;27506;-73
2023/12/05 03:35:20;;;;;;;8.40;5.22;;;4.20;99.90;;;;;;493989;241;27506;-74
2023/12/05 03:37:21;;;;;;;6.40;4.78;;;4.30;99.90;;;;;;493951;241;27555;-73
2023/12/05 03:39:23;;;;;;;9.38;5.18;;;4.30;99.90;;;;;;493963;241;27603;-72
2023/12/05 03:41:25;;;;;;;7.78;4.65;;;4.30;99.90;;;;;;493945;241;27516;-72
2023/12/05 03:43:25;;;;;;;9.98;4.60;;;4.30;99.90;;;;;;494030;237;27576;-73
2023/12/05 03:45:26;;;;;;;5.50;3.95;;;4.30;99.90;;;;;;494071;241;27494;-72
2023/12/05 03:47:28;;;;;;;5.05;3.80;;;4.40;99.90;;;;;;493973;241;27460;-72
2023/12/05 03:49:29;;;;;;;4.95;4.00;;;4.40;99.90;;;;;;493998;241;27983;-72
2023/12/05 03:51:30;;;;;;;6.18;4.12;;;4.40;99.90;;;;;;494054;241;28081;-74
2023/12/05 03:53:31;;;;;;;7.40;4.50;;;4.50;99.90;;;;;;494091;241;27971;-73
2023/12/05 03:55:33;;;;;;;8.95;3.75;;;4.50;99.90;;;;;;494052;241;27986;-73
2023/12/05 03:57:34;;;;;;;5.95;3.83;;;4.40;99.90;;;;;;493988;237;27533;-74
2023/12/05 03:59:35;;;;;;;6.80;4.03;;;4.40;99.90;;;;;;493962;241;27596;-73
2023/12/05 04:01:36;;;;;;;6.05;3.70;;;4.40;99.90;;;;;;494098;241;27589;-73
2023/12/05 04:03:38;;;;;;;8.85;3.55;;;4.50;99.90;;;;;;494000;241;27527;-73
2023/12/05 04:05:39;;;;;;;4.68;3.30;;;4.50;99.90;;;;;;494006;241;27518;-73
2023/12/05 04:07:40;;;;;;;5.22;2.92;;;4.50;99.90;;;;;;494025;241;27454;-73
2023/12/05 04:09:41;;;;;;;9.30;4.05;;;4.50;99.90;;;;;;494094;241;27537;-72
2023/12/05 04:11:43;;;;;;;3.58;3.10;;;4.50;99.90;;;;;;494040;241;27544;-74
2023/12/05 04:13:44;;;;;;;4.72;3.20;;;4.50;99.90;;;;;;493988;241;27464;-72
2023/12/05 04:15:45;;;;;;;4.78;3.40;;;4.50;99.90;;;;;;494078;241;28113;-72
2023/12/05 04:17:46;;;;;;;5.37;3.33;;;4.50;99.90;;;;;;494054;241;28053;-74
2023/12/05 04:19:48;;;;;;;3.20;2.30;;;4.50;99.90;;;;;;494022;241;27928;-72
2023/12/05 04:21:49;;;;;;;5.07;3.40;;;4.60;99.90;;;;;;494048;241;28120;-73
2023/12/05 04:23:50;;;;;;;4.95;2.45;;;4.60;99.90;;;;;;494058;241;27501;-72
2023/12/05 04:25:51;;;;;;;6.37;2.50;;;4.60;99.90;;;;;;494011;241;27616;-73
2023/12/05 04:27:53;;;;;;;7.72;3.30;;;4.60;99.90;;;;;;494061;241;27616;-74
2023/12/05 04:29:54;;;;;;;8.68;2.40;;;4.50;99.90;;;;;;494088;241;27540;-73
2023/12/05 04:31:55;;;;;;;5.60;2.22;;;4.60;99.90;;;;;;493950;241;27510;-72
2023/12/05 04:33:56;;;;;;;3.47;2.42;;;4.60;99.90;;;;;;494071;241;27570;-72
2023/12/05 04:35:58;;;;;;;5.07;2.17;;;4.60;99.90;;;;;;493986;241;27516;-72
2023/12/05 04:37:59;;;;;;;4.72;2.60;;;4.60;99.90;;;;;;494006;241;27619;-75
2023/12/05 04:40:00;;;;;;;2.30;2.10;;;4.60;99.90;;;;;;494007;241;27469;-72
2023/12/05 04:42:02;;;;;;;2.50;2.30;;;4.60;99.90;;;;;;494001;241;27962;-73
2023/12/05 04:44:04;;;;;;;8.13;2.45;;;4.60;99.90;;;;;;494126;241;28703;-73
2023/12/05 04:46:04;;;;;;;12.13;2.35;;;4.60;99.90;;;;;;493997;241;27939;-72
2023/12/05 04:48:05;;;;;;;2.78;1.92;;;4.60;99.90;;;;;;494038;241;27593;-73
2023/12/05 04:50:06;;;;;;;5.45;2.28;;;4.60;99.90;;;;;;494038;241;27468;-73
2023/12/05 04:52:08;;;;;;;5.22;2.25;;;4.60;99.90;;;;;;493978;241;27625;-72
2023/12/05 04:54:09;;;;;;;4.03;2.03;;;4.70;99.90;;;;;;494042;241;27612;-72
2023/12/05 04:56:10;;;;;;;7.47;2.90;;;4.60;99.90;;;;;;494122;241;27569;-73
2023/12/05 04:58:11;;;;;;;5.40;2.12;;;4.70;99.90;;;;;;494076;241;27524;-73
2023/12/05 05:00:13;;;;;;;3.75;2.00;;;4.70;99.90;;;;;;494115;241;27532;-72
2023/12/05 05:02:14;;;;;;;2.92;2.08;;;4.70;99.90;;;;;;494064;241;27531;-72
2023/12/05 05:04:15;;;;;;;5.05;2.10;;;4.60;99.90;;;;;;494112;241;27501;-74
2023/12/05 05:06:16;;;;;;;2.90;1.75;;;4.70;99.90;;;;;;494087;241;27941;-73
2023/12/05 05:08:18;;;;;;;3.35;2.10;;;4.70;99.90;;;;;;494096;241;28043;-72
2023/12/05 05:10:19;;;;;;;3.08;2.10;;;4.70;99.90;;;;;;494081;241;28048;-72
2023/12/05 05:12:20;;;;;;;5.30;2.33;;;4.70;99.90;;;;;;494068;241;27573;-72
2023/12/05 05:14:21;;;;;;;3.25;2.20;;;4.70;99.90;;;;;;494087;241;27501;-74
2023/12/05 05:16:23;;;;;;;5.25;1.90;;;4.70;99.90;;;;;;494084;241;27465;-73
2023/12/05 05:18:24;;;;;;;8.52;2.30;;;4.70;99.90;;;;;;494031;241;27581;-73
2023/12/05 05:20:25;;;;;;;5.80;2.08;;;4.70;99.90;;;;;;494058;241;27612;-73
2023/12/05 05:22:27;;;;;;;2.60;1.80;;;4.80;99.90;;;;;;494090;241;27497;-73
2023/12/05 05:24:28;;;;;;;3.40;2.15;;;4.80;99.90;;;;;;494104;241;27510;-73
2023/12/05 05:26:29;;;;;;;6.93;2.15;;;4.70;99.90;;;;;;494050;240;27534;-73
2023/12/05 05:28:31;;;;;;;2.15;2.05;;;4.70;99.90;;;;;;494031;241;28033;-72
2023/12/05 05:30:32;;;;;;;1.90;1.70;;;4.70;99.90;;;;;;493988;241;28112;-74
2023/12/05 05:32:33;;;;;;;6.10;2.03;;;4.80;99.90;;;;;;493990;241;28039;-72
2023/12/05 05:34:34;;;;;;;2.22;2.00;;;4.70;99.90;;;;;;493957;241;27613;-73
2023/12/05 05:36:35;;;;;;;3.83;2.45;;;4.70;99.90;;;;;;493981;241;27471;-72
2023/12/05 05:38:37;;;;;;;2.90;2.10;;;4.70;99.90;;;;;;493985;241;27501;-73
2023/12/05 05:40:38;;;;;;;5.40;3.58;;;4.70;99.90;;;;;;493978;241;27506;-73
2023/12/05 05:42:39;;;;;;;5.43;1.80;;;4.70;99.90;;;;;;493986;241;27513;-72
2023/12/05 05:44:40;;;;;;;4.93;1.80;;;4.70;99.90;;;;;;493983;241;27510;-73
2023/12/05 05:46:42;;;;;;;2.12;1.60;;;4.70;99.90;;;;;;493941;241;27476;-72
2023/12/05 05:48:43;;;;;;;2.78;1.75;;;4.70;99.90;;;;;;494003;241;27975;-72
2023/12/05 05:50:44;;;;;;;3.95;1.83;;;4.70;99.90;;;;;;493999;241;28048;-73
2023/12/05 05:52:45;;;;;;;1.95;1.60;;;4.70;99.90;;;;;;493958;241;27933;-73
2023/12/05 05:54:47;;;;;;;6.97;3.45;;;4.80;99.90;;;;;;493972;241;27577;-73
2023/12/05 05:56:48;;;;;;;6.22;3.95;;;4.70;99.90;;;;;;494008;241;27541;-73
2023/12/05 05:58:49;;;;;;;4.72;2.90;;;4.80;99.90;;;;;;494027;237;27498;-73
2023/12/05 06:00:50;;;;;;;3.53;1.92;;;4.80;99.90;;;;;;494005;241;27627;-73
2023/12/05 06:02:52;;;;;;;5.93;2.17;;;4.80;99.90;;;;;;493965;241;27471;-73
2023/12/05 06:04:53;;;;;;;3.35;2.00;;;4.80;99.90;;;;;;493918;241;27513;-72
2023/12/05 06:06:54;;;;;;;3.25;1.77;;;4.80;99.90;;;;;;494055;237;27624;-74
2023/12/05 06:08:55;;;;;;;4.07;2.10;;;4.80;99.90;;;;;;493925;241;27450;-72
2023/12/05 06:10:57;;;;;;;3.10;2.33;;;4.80;99.90;;;;;;493964;241;27496;-73
2023/12/05 06:12:58;;;;;;;2.08;1.75;;;4.80;99.90;;;;;;494008;241;27492;-73
2023/12/05 06:14:59;;;;;;;3.47;1.85;;;4.80;99.90;;;;;;493993;241;27493;-73
2023/12/05 06:17:00;;;;;;;1.77;1.65;;;4.70;99.90;;;;;;493947;241;27501;-74
2023/12/05 06:19:02;;;;;;;2.50;1.87;;;4.80;99.90;;;;;;493881;241;27474;-73
2023/12/05 06:21:03;;;;;;;4.78;2.00;;;4.70;99.90;;;;;;493977;241;27514;-73
2023/12/05 06:23:04;;;;;;;3.30;1.98;;;4.70;99.90;;;;;;493930;237;27975;-72
2023/12/05 06:25:05;;;;;;;2.50;1.95;;;4.70;99.90;;;;;;493974;241;28004;-73
2023/12/05 06:27:07;;;;;;;5.62;2.10;;;4.70;99.90;;;;;;493972;241;28201;-74
2023/12/05 06:29:08;;;;;;;3.92;1.87;;;4.70;99.90;;;;;;493975;241;27954;-72
2023/12/05 06:31:09;;;;;;;3.42;1.83;;;4.70;99.90;;;;;;493983;241;27623;-72
2023/12/05 06:33:10;;;;;;;3.53;1.90;;;4.70;99.90;;;;;;494080;241;27648;-75
2023/12/05 06:35:12;;;;;;;2.20;1.80;;;4.70;99.90;;;;;;494088;237;27543;-73
2023/12/05 06:37:13;;;;;;;2.28;1.83;;;4.70;99.90;;;;;;493985;241;27510;-73
2023/12/05 06:39:14;;;;;;;2.10;1.90;;;4.70;99.90;;;;;;494043;241;27480;-73
2023/12/05 06:41:15;;;;;;;5.53;1.90;;;4.70;99.90;;;;;;494066;241;27615;-72
2023/12/05 06:43:17;;;;;;;2.17;1.67;;;4.70;99.90;;;;;;494115;241;27588;-73
2023/12/05 06:45:18;;;;;;;1.62;1.52;;;4.70;99.90;;;;;;494095;241;28046;-73
2023/12/05 06:47:19;;;;;;;3.28;2.03;;;4.70;99.90;;;;;;494065;241;28009;-73
2023/12/05 06:49:22;;;;;;;7.32;2.75;;;4.70;99.90;;;;;;494040;241;28715;-74
2023/12/05 06:51:22;;;;;;;7.22;2.00;;;4.60;99.90;;;;;;494018;241;27474;-73
2023/12/05 06:53:23;;;;;;;1.70;1.55;;;4.60;99.90;;;;;;493990;241;27504;-74
2023/12/05 06:55:24;;;;;;;2.08;1.83;;;4.60;99.90;;;;;;494099;241;27469;-72
2023/12/05 06:57:25;;;;;;;4.80;2.20;;;4.60;99.90;;;;;;494072;241;27492;-73
2023/12/05 06:59:27;;;;;;;3.40;1.92;;;4.60;99.90;;;;;;494000;241;27863;-74
2023/12/05 07:01:28;;;;;;;3.90;2.08;;;4.60;99.90;;;;;;494027;241;27575;-72
2023/12/05 07:03:29;;;;;;;4.15;2.10;;;4.60;99.90;;;;;;494007;241;27529;-73
2023/12/05 07:05:30;;;;;;;4.80;1.80;;;4.60;99.90;;;;;;493998;241;27550;-72
2023/12/05 07:07:32;;;;;;;3.03;2.10;;;4.60;99.90;;;;;;493987;241;27989;-73
2023/12/05 07:09:33;;;;;;;4.65;1.90;;;4.60;99.90;;;;;;493990;241;28057;-75
2023/12/05 07:11:34;;;;;;;4.43;1.95;;;4.60;99.90;;;;;;494024;241;27469;-73
2023/12/05 07:13:35;;;;;;;3.97;2.00;;;4.60;99.90;;;;;;494024;241;27624;-73
2023/12/05 07:15:37;;;;;;;6.43;1.90;;;4.60;99.90;;;;;;494021;241;27451;-72
2023/12/05 07:17:38;;;;;;;1.90;1.80;;;4.60;99.90;;;;;;493985;241;27460;-72
2023/12/05 07:19:39;;;;;;;2.17;1.60;;;4.60;99.90;;;;;;494131;241;27585;-72
2023/12/05 07:21:40;;;;;;;3.83;1.80;;;4.60;99.90;;;;;;494027;241;27558;-75
2023/12/05 07:23:42;;;;;;;6.30;2.28;;;4.60;99.90;;;;;;494027;237;27522;-73
2023/12/05 07:25:43;;;;;;;2.20;2.00;;;4.60;99.90;;;;;;494137;241;28133;-74
2023/12/05 07:27:44;;;;;;;5.78;2.45;;;4.60;99.90;;;;;;493995;241;27987;-73
2023/12/05 07:29:45;;;;;;;2.20;1.60;;;4.60;99.90;;;;;;494032;241;27969;-74
2023/12/05 07:31:47;;;;;;;7.15;2.53;;;4.60;99.90;;;;;;493949;241;29035;-73
2023/12/05 07:33:48;;;;;;;3.03;2.08;;;4.70;99.90;;;;;;493998;241;27588;-73
2023/12/05 07:35:49;;;;;;;1.80;1.70;;;4.70;99.90;;;;;;494031;241;27514;-74
2023/12/05 07:37:51;;;;;;;5.45;2.03;;;4.70;99.90;;;;;;494084;241;27478;-73
2023/12/05 07:39:52;;;;;;;2.78;1.80;;;4.70;99.90;;;;;;494046;241;27525;-72
2023/12/05 07:41:53;;;;;;;4.12;2.10;;;4.70;99.90;;;;;;494007;241;27454;-73
2023/12/05 07:43:54;;;;;;;3.08;1.87;;;4.70;99.90;;;;;;493517;241;27496;-73
2023/12/05 07:45:56;;;;;;;1.92;1.70;;;4.60;99.90;;;;;;493480;241;27516;-73
2023/12/05 07:47:57;;;;;;;3.45;1.70;;;4.70;99.90;;;;;;494012;241;27469;-73
2023/12/05 07:49:58;;;;;;;5.07;1.95;;;4.70;99.90;;;;;;493983;241;27550;-72
2023/12/05 07:52:00;;;;;;;2.78;1.65;;;4.70;99.90;;;;;;494120;241;28163;-75
2023/12/05 07:54:01;;;;;;;4.22;1.60;;;4.70;99.90;;;;;;494088;241;27940;-74
2023/12/05 07:56:03;;;;;;;1.90;1.67;;;4.70;99.90;;;;;;494126;241;27987;-73
2023/12/05 07:58:03;;;;;;;4.93;1.58;;;4.70;99.90;;;;;;494051;241;27594;-73
2023/12/05 08:00:06;;;;;;;2.55;1.30;;;4.70;99.90;;;;;;494072;241;27520;-72
2023/12/05 08:02:06;;;;;;;4.18;1.62;;;4.70;99.90;;;;;;493933;237;27518;-74
2023/12/05 08:04:07;;;;;;;2.75;2.00;;;4.70;99.90;;;;;;494035;241;27469;-73
2023/12/05 08:06:08;;;;;;;1.85;1.35;;;4.80;99.90;;;;;;494048;241;27530;-73
2023/12/05 08:08:09;;;;;;;1.98;1.35;;;4.80;99.90;;;;;;494076;241;27603;-72
2023/12/05 08:10:11;;;;;;;2.60;1.40;;;4.80;99.90;;;;;;494086;241;27514;-73
2023/12/05 08:12:12;;;;;;;1.62;1.52;;;4.80;99.90;;;;;;494107;241;27609;-74
2023/12/05 08:14:13;;;;;;;1.70;1.60;;;4.90;99.90;;;;;;493849;241;27906;-72
2023/12/05 08:16:14;;;;;;;3.83;1.55;;;4.90;99.90;;;;;;494088;241;28049;-73
2023/12/05 08:18:16;;;;;;;2.45;1.48;;;4.90;99.90;;;;;;494065;241;28806;-73
2023/12/05 08:20:17;;;;;;;6.00;1.42;;;4.90;99.90;;;;;;494032;241;27471;-73
2023/12/05 08:22:18;;;;;;;1.60;1.50;;;4.90;99.90;;;;;;494103;241;27472;-74
2023/12/05 08:24:19;;;;;;;3.40;1.73;;;4.90;99.90;;;;;;494089;241;27517;-73
2023/12/05 08:26:21;;;;;;;2.83;1.30;;;5.00;99.90;;;;;;494084;241;27514;-73
2023/12/05 08:28:22;;;;;;;2.50;1.42;;;5.00;99.90;;;;;;494009;241;27624;-74
2023/12/05 08:30:23;;;;;;;2.22;1.40;;;5.00;99.90;;;;;;494107;241;27494;-73
2023/12/05 08:32:24;;;;;;;2.15;1.90;;;5.00;99.90;;;;;;494078;241;27595;-73
2023/12/05 08:34:26;;;;;;;5.55;1.70;;;5.00;99.90;;;;;;493976;241;27594;-73
2023/12/05 08:36:27;;;;;;;3.08;1.40;;;5.00;99.90;;;;;;494091;241;27980;-73
2023/12/05 08:38:28;;;;;;;1.77;1.62;;;5.00;99.90;;;;;;494082;239;28072;-76
2023/12/05 08:40:29;;;;;;;1.65;1.55;;;5.00;99.90;;;;;;494092;241;27984;-72
2023/12/05 08:42:31;;;;;;;2.85;1.70;;;5.00;99.90;;;;;;494089;241;27564;-74
2023/12/05 08:44:32;;;;;;;4.05;2.05;;;5.00;99.90;;;;;;494080;241;27461;-73
2023/12/05 08:46:33;;;;;;;2.25;1.55;;;5.00;99.90;;;;;;493999;241;27478;-73
2023/12/05 08:48:34;;;;;;;1.40;1.30;;;5.00;99.90;;;;;;494018;241;27619;-73
2023/12/05 08:50:36;;;;;;;2.37;1.60;;;5.00;99.90;;;;;;494080;241;27557;-73
2023/12/05 08:52:37;;;;;;;4.30;1.55;;;5.00;99.90;;;;;;494053;241;27525;-74
2023/12/05 08:54:38;;;;;;;1.85;1.20;;;5.00;99.90;;;;;;494085;241;28071;-72
2023/12/05 08:56:39;;;;;;;1.70;1.60;;;5.00;99.90;;;;;;494133;241;28058;-73
2023/12/05 08:58:42;;;;;;;5.87;1.70;;;5.00;99.90;;;;;;493942;241;28056;-73
2023/12/05 09:00:42;;;;;;;2.97;1.50;;;5.10;99.90;;;;;;493907;241;27479;-73
2023/12/05 09:02:43;;;;;;;1.95;1.62;;;5.10;99.90;;;;;;493984;241;27502;-73
2023/12/05 09:04:44;;;;;;;1.77;1.62;;;5.10;99.90;;;;;;494004;241;27521;-74
2023/12/05 09:06:46;;;;;;;3.97;1.60;;;5.10;99.90;;;;;;494004;241;27481;-73
2023/12/05 09:08:47;;;;;;;3.25;1.52;;;5.20;99.90;;;;;;493985;241;27513;-73
2023/12/05 09:10:48;;;;;;;3.60;1.40;;;5.20;99.90;;;;;;494016;241;27470;-72
2023/12/05 09:12:49;;;;;;;3.08;1.50;;;5.10;99.90;;;;;;494001;241;28101;-73
2023/12/05 09:14:51;;;;;;;3.37;1.50;;;5.10;99.90;;;;;;494089;241;27978;-74
2023/12/05 09:16:52;;;;;;;1.45;1.30;;;5.20;99.90;;;;;;494052;241;28011;-74
2023/12/05 09:18:53;;;;;;;3.58;1.75;;;5.20;99.90;;;;;;494038;241;27499;-74
2023/12/05 09:20:54;;;;;;;1.58;1.48;;;5.30;99.90;;;;;;494052;241;27541;-73
2023/12/05 09:22:56;;;;;;;2.17;1.50;;;5.30;99.90;;;;;;494083;241;27474;-73
2023/12/05 09:24:57;;;;;;;2.85;1.70;;;5.20;99.90;;;;;;494009;241;27536;-73
2023/12/05 09:26:58;;;;;;;1.67;1.55;;;5.20;99.90;;;;;;493954;241;27450;-73
2023/12/05 09:28:59;;;;;;;2.97;1.80;;;5.20;99.90;;;;;;493989;241;27615;-73
2023/12/05 09:31:01;;;;;;;2.15;1.60;;;5.20;99.90;;;;;;494077;241;28061;-74
2023/12/05 09:33:02;;;;;;;3.33;1.62;;;5.10;99.90;;;;;;494080;241;27902;-72
2023/12/05 09:35:04;;;;;;;1.33;1.25;;;5.20;99.90;;;;;;494035;241;27970;-73
2023/12/05 09:37:04;;;;;;;1.40;1.30;;;5.20;99.90;;;;;;493953;241;27466;-73
2023/12/05 09:39:06;;;;;;;3.92;1.23;;;5.20;99.90;;;;;;493971;241;27509;-73
2023/12/05 09:41:08;;;;;;;1.50;1.40;;;5.20;99.90;;;;;;494015;239;27533;-74
2023/12/05 09:43:08;;;;;;;1.58;1.23;;;5.20;99.90;;;;;;493998;241;27457;-73
2023/12/05 09:45:10;;;;;;;1.60;1.50;;;5.20;99.90;;;;;;494060;241;27525;-73
2023/12/05 09:47:11;;;;;;;1.87;1.42;;;5.20;99.90;;;;;;494100;241;27590;-73
2023/12/05 09:49:12;;;;;;;1.83;1.40;;;5.20;99.90;;;;;;494022;241;28028;-73
2023/12/05 09:51:13;;;;;;;1.45;1.35;;;5.30;99.90;;;;;;494008;241;27980;-74
2023/12/05 09:53:15;;;;;;;3.00;1.98;;;5.30;99.90;;;;;;493981;241;27545;-72
2023/12/05 09:55:16;;;;;;;2.12;1.50;;;5.30;99.90;;;;;;494054;241;27505;-73
2023/12/05 09:57:17;;;;;;;1.75;1.58;;;5.30;99.90;;;;;;494081;241;27536;-73
2023/12/05 09:59:18;;;;;;;2.85;1.75;;;5.20;99.90;;;;;;494012;241;27571;-73
2023/12/05 10:01:20;;;;;;;2.12;1.70;;;5.20;99.90;;;;;;494018;241;27504;-73
2023/12/05 10:03:21;;;;;;;1.60;1.50;;;5.20;99.90;;;;;;494060;241;27473;-73
2023/12/05 10:05:22;;;;;;;1.62;1.30;;;5.20;99.90;;;;;;494022;241;28033;-73
2023/12/05 10:07:23;;;;;;;1.70;1.60;;;5.10;99.90;;;;;;494012;241;28060;-73
2023/12/05 10:09:25;;;;;;;3.25;1.52;;;5.10;99.90;;;;;;494004;241;27466;-72
2023/12/05 10:11:27;;;;;;;2.28;1.87;;;5.20;99.90;;;;;;494012;241;27573;-72
2023/12/05 10:13:27;;;;;;;1.95;1.55;;;5.20;99.90;;;;;;493946;241;27476;-73
2023/12/05 10:15:29;;;;;;;2.00;1.77;;;5.20;99.90;;;;;;494002;241;27482;-72
2023/12/05 10:17:33;;;;;;;4.82;1.35;;;5.20;99.90;;;;;;493999;241;27528;-73
2023/12/05 10:19:31;;;;;;;2.25;1.62;;;5.20;99.90;;;;;;493747;241;27922;-72
2023/12/05 10:21:32;;;;;;;1.60;1.50;;;5.20;99.90;;;;;;494021;237;27961;-73
2023/12/05 10:23:33;;;;;;;2.45;1.35;;;5.20;99.90;;;;;;494120;241;28061;-73
2023/12/05 10:25:35;;;;;;;1.87;1.55;;;5.20;99.90;;;;;;494134;241;27460;-73
2023/12/05 10:27:36;;;;;;;3.28;2.97;;;5.20;99.90;;;;;;494119;241;27489;-74
2023/12/05 10:29:38;;;;;;;2.60;1.65;;;5.20;99.90;;;;;;494044;241;27445;-72
2023/12/05 10:31:38;;;;;;;2.35;2.15;;;5.20;99.90;;;;;;493986;241;27592;-73
2023/12/05 10:33:40;;;;;;;1.60;1.50;;;5.10;99.90;;;;;;494046;241;27850;-74
2023/12/05 10:35:44;;;;;;;3.92;2.65;;;5.20;99.90;;;;;;494045;241;27475;-72